Time;durP1;ratioP1;P1;durP2;ratioP2;P2;SDS_P1;SDS_P2;PMS_P1;PMS_P2;Temp;Humidity;BMP_temperature;BMP_pressure;BME280_temperature;BME280_humidity;BME280_pressure;Samples;Min_cycle;Max_cycle;Signal;HPM_P1;HPM_P2
2022/12/14 04:59:43;;;;;;;39.13;22.17;;;;;;;2.81;97.82;100143.97;5606403;31;78479;-53
2022/12/14 05:03:05;;;;;;;40.83;22.92;;;;;;;2.81;97.82;100143.97;5583954;31;33514;-53
2022/12/14 05:06:31;;;;;;;39.63;22.98;;;;;;;2.55;95.90;100173.56;5583878;31;34362;-54
2022/12/14 05:10:02;;;;;;;40.53;22.45;;;;;;;2.07;80.92;100166.69;5584075;31;33651;-53
2022/12/14 05:13:12;;;;;;;38.92;22.02;;;;;;;2.19;94.94;100159.56;5583736;31;33592;-53
2022/12/14 05:16:20;;;;;;;37.20;21.77;;;;;;;2.64;100.00;100174.03;5583802;31;33504;-54
2022/12/14 05:19:25;;;;;;;34.20;20.45;;;;;;;2.54;85.77;100182.53;5583701;31;33209;-54
2022/12/14 05:22:27;;;;;;;39.13;22.85;;;;;;;2.47;86.58;100177.38;5583107;31;33614;-54
2022/12/14 05:25:30;;;;;;;34.40;21.08;;;;;;;2.54;95.41;100179.91;5583617;32;33783;-54
2022/12/14 05:28:32;;;;;;;37.40;21.87;;;;;;;2.51;89.68;100167.94;5583725;31;33542;-53
2022/12/14 05:31:34;;;;;;;33.13;21.48;;;;;;;2.27;84.51;100164.50;5583841;31;33235;-54
2022/12/14 05:34:37;;;;;;;36.22;21.23;;;;;;;1.97;73.38;100155.87;5583515;31;33684;-54
2022/12/14 05:37:40;;;;;;;31.73;20.83;;;;;;;2.23;76.25;100157.28;5583414;31;33720;-53
2022/12/14 05:40:42;;;;;;;33.85;21.25;;;;;;;2.41;83.41;100151.03;5583483;32;33536;-53
2022/12/14 05:43:44;;;;;;;32.97;21.10;;;;;;;2.52;80.65;100148.41;5576080;32;34245;-54
2022/12/14 05:46:51;;;;;;;32.33;20.02;;;;;;;2.37;71.52;100144.59;5574981;31;33892;-54
2022/12/14 05:49:53;;;;;;;31.30;19.60;;;;;;;2.16;71.86;100149.47;5562803;32;33655;-53
2022/12/14 05:52:55;;;;;;;30.95;20.10;;;;;;;2.30;90.78;100152.66;5580525;32;34380;-54
2022/12/14 05:55:57;;;;;;;33.72;20.20;;;;;;;2.61;83.53;100170.00;5576814;31;34235;-53
2022/12/14 05:58:59;;;;;;;30.90;19.33;;;;;;;2.79;90.93;100158.47;5580681;31;33859;-53
2022/12/14 06:02:04;;;;;;;29.23;17.92;;;;;;;2.88;85.24;100150.94;5583008;32;33717;-53
2022/12/14 06:05:07;;;;;;;29.00;18.48;;;;;;;2.53;73.53;100138.63;5581456;32;33777;-54
2022/12/14 06:08:09;;;;;;;26.20;18.27;;;;;;;2.61;81.18;100135.59;5581919;32;33712;-54
2022/12/14 06:11:18;;;;;;;32.38;19.37;;;;;;;2.47;73.73;100118.37;5550021;32;33716;-53
2022/12/14 06:14:23;;;;;;;28.25;18.90;;;;;;;2.62;82.03;100115.25;5564928;32;34324;-54
2022/12/14 06:17:28;;;;;;;28.85;19.30;;;;;;;2.70;77.42;100101.63;5567561;32;33212;-53
2022/12/14 06:20:30;;;;;;;32.97;19.83;;;;;;;2.76;84.54;100106.00;5564602;32;34263;-54
2022/12/14 06:23:34;;;;;;;24.08;17.15;;;;;;;2.75;96.59;100115.78;5565591;32;35981;-54
2022/12/14 06:26:40;;;;;;;29.45;19.48;;;;;;;2.75;91.18;100121.06;5563649;32;33983;-54
2022/12/14 06:29:43;;;;;;;28.02;18.75;;;;;;;2.71;78.36;100122.56;5568087;32;33586;-54
2022/12/14 06:32:45;;;;;;;30.48;17.83;;;;;;;2.62;84.80;100120.53;5560013;32;33686;-53
2022/12/14 06:35:48;;;;;;;25.33;17.12;;;;;;;2.65;78.52;100120.88;5568942;32;34361;-54
2022/12/14 06:38:53;;;;;;;28.55;16.92;;;;;;;2.59;73.55;100111.22;5567499;32;34447;-54
2022/12/14 06:41:56;;;;;;;31.75;18.05;;;;;;;2.48;68.23;100109.38;5568257;32;33710;-53
2022/12/14 06:44:58;;;;;;;25.10;17.35;;;;;;;2.37;75.40;100118.16;5568580;32;33793;-54
2022/12/14 06:48:01;;;;;;;27.92;18.02;;;;;;;2.67;93.04;100121.44;5566508;32;33689;-54
2022/12/14 06:51:05;;;;;;;25.35;17.23;;;;;;;2.83;92.33;100118.03;5566823;32;32917;-54
2022/12/14 06:54:12;;;;;;;29.02;18.62;;;;;;;2.73;69.99;100122.34;5568989;32;34260;-54
2022/12/14 06:57:14;;;;;;;26.00;17.70;;;;;;;2.57;93.54;100114.09;5568184;32;33658;-54
2022/12/14 07:00:21;;;;;;;25.00;16.65;;;;;;;2.57;73.26;100113.28;5566558;32;34579;-55
2022/12/14 07:03:23;;;;;;;27.73;17.30;;;;;;;2.38;67.12;100107.34;5568415;32;33854;-54
2022/12/14 07:06:31;;;;;;;21.30;15.35;;;;;;;2.66;84.53;100105.78;5567785;32;33698;-54
2022/12/14 07:09:33;;;;;;;24.92;17.10;;;;;;;2.21;74.35;100098.50;5568534;32;34208;-54
2022/12/14 07:12:36;;;;;;;24.33;16.50;;;;;;;2.31;77.30;100104.81;5569142;32;33716;-54
2022/12/14 07:15:38;;;;;;;24.58;17.20;;;;;;;2.31;80.99;100102.16;5569014;32;33615;-53
2022/12/14 07:18:41;;;;;;;24.95;16.70;;;;;;;2.68;89.20;100101.06;5567889;32;33190;-54
2022/12/14 07:21:43;;;;;;;29.08;17.62;;;;;;;2.43;72.25;100091.56;5566209;32;34443;-54
2022/12/14 07:24:46;;;;;;;27.75;18.10;;;;;;;2.73;78.57;100086.09;5565481;32;33081;-54
2022/12/14 07:27:50;;;;;;;25.95;16.98;;;;;;;2.71;83.22;100092.66;5567414;32;33770;-54
2022/12/14 07:30:56;;;;;;;27.83;18.75;;;;;;;2.91;87.20;100086.94;5567794;32;33660;-54
2022/12/14 07:34:00;;;;;;;26.98;17.70;;;;;;;2.81;77.72;100090.19;5565967;32;32033;-53
2022/12/14 07:37:03;;;;;;;27.02;18.45;;;;;;;2.68;88.62;100083.34;5560992;32;34293;-54
2022/12/14 07:40:06;;;;;;;28.87;18.55;;;;;;;2.62;74.62;100075.56;5563986;32;33810;-54
2022/12/14 07:43:09;;;;;;;29.52;19.33;;;;;;;2.71;75.51;100082.84;5558328;32;32598;-54
2022/12/14 07:46:18;;;;;;;28.08;18.27;;;;;;;2.74;79.21;100090.34;5556119;32;31817;-55
2022/12/14 07:49:20;;;;;;;28.40;19.23;;;;;;;2.65;86.90;100102.34;5563148;32;34069;-54
2022/12/14 07:52:23;;;;;;;30.70;20.17;;;;;;;2.76;83.38;100101.50;5560462;32;34354;-54
2022/12/14 07:55:28;;;;;;;27.25;18.10;;;;;;;2.52;70.28;100110.56;5567730;32;34301;-54
2022/12/14 07:58:32;;;;;;;33.45;20.77;;;;;;;2.45;87.09;100107.19;5565847;32;34216;-54
2022/12/14 08:01:37;;;;;;;33.40;19.65;;;;;;;2.64;79.98;100113.16;5567592;32;34463;-54
2022/12/14 08:04:41;;;;;;;32.60;18.50;;;;;;;2.88;91.14;100111.22;5568313;32;35315;-54
2022/12/14 08:07:43;;;;;;;33.92;18.90;;;;;;;2.77;95.48;100097.00;5567311;32;33598;-53
2022/12/14 08:10:48;;;;;;;30.20;19.02;;;;;;;2.86;77.24;100100.09;5566067;32;33606;-54
2022/12/14 08:13:58;;;;;;;33.38;20.42;;;;;;;2.72;70.95;100113.59;5566701;32;34325;-54
2022/12/14 08:17:02;;;;;;;31.27;19.62;;;;;;;2.46;74.93;100103.53;5561281;32;33808;-54
2022/12/14 08:20:05;;;;;;;30.25;19.17;;;;;;;2.66;84.56;100103.94;5567034;32;33786;-54
2022/12/14 08:23:07;;;;;;;31.87;19.30;;;;;;;2.74;78.07;100092.19;5563813;32;33678;-54
2022/12/14 08:26:09;;;;;;;28.83;19.37;;;;;;;3.11;96.65;100100.53;5566494;32;32930;-53
2022/12/14 08:29:13;;;;;;;32.65;20.27;;;;;;;3.19;85.65;100107.31;5567049;32;33630;-54
2022/12/14 08:32:15;;;;;;;30.45;19.90;;;;;;;3.04;79.28;100105.19;5566978;32;33888;-54
2022/12/14 08:35:18;;;;;;;32.25;20.48;;;;;;;2.88;77.51;100109.41;5565516;32;33714;-54
2022/12/14 08:38:21;;;;;;;29.60;17.87;;;;;;;2.69;71.95;100103.47;5568437;32;33184;-54
2022/12/14 08:41:24;;;;;;;27.25;17.55;;;;;;;2.87;71.09;100101.69;5566862;32;33573;-54
2022/12/14 08:44:26;;;;;;;29.70;18.45;;;;;;;2.90;84.40;100101.22;5561560;32;34016;-54
2022/12/14 08:47:29;;;;;;;30.40;18.87;;;;;;;3.00;81.33;100088.97;5559897;32;33619;-54
2022/12/14 08:50:31;;;;;;;36.40;19.48;;;;;;;3.09;87.96;100081.47;5565894;32;33642;-55
2022/12/14 08:53:35;;;;;;;32.00;19.70;;;;;;;3.01;83.22;100077.34;5566905;32;34407;-54
2022/12/14 08:56:37;;;;;;;31.50;18.75;;;;;;;2.93;74.22;100067.13;5565667;32;34457;-54
2022/12/14 08:59:40;;;;;;;42.10;17.73;;;;;;;2.92;76.04;100062.09;5564424;32;34379;-53
2022/12/14 09:03:02;;;;;;;27.90;17.87;;;;;;;2.82;89.13;100060.06;5561313;32;34145;-54
2022/12/14 09:06:07;;;;;;;28.83;17.70;;;;;;;3.17;73.80;100043.19;5559943;32;33201;-54
2022/12/14 09:09:09;;;;;;;30.85;19.25;;;;;;;2.97;67.41;100048.91;5565015;32;34165;-54
2022/12/14 09:12:17;;;;;;;26.40;17.15;;;;;;;2.64;70.60;100050.44;5567837;32;33677;-54
2022/12/14 09:15:20;;;;;;;32.08;18.08;;;;;;;2.72;92.68;100055.38;5566195;32;34332;-54
2022/12/14 09:18:22;;;;;;;30.92;17.73;;;;;;;2.71;67.25;100056.38;5567038;32;33659;-53
2022/12/14 09:21:24;;;;;;;26.62;17.05;;;;;;;2.52;67.42;100049.69;5563102;32;34383;-54
2022/12/14 09:24:27;;;;;;;27.48;17.15;;;;;;;2.86;83.25;100060.38;5560214;32;34245;-54
2022/12/14 09:27:29;;;;;;;30.08;18.80;;;;;;;3.32;92.62;100063.84;5558126;32;33810;-54
2022/12/14 09:30:31;;;;;;;26.35;16.12;;;;;;;3.02;69.60;100046.38;5558433;32;34391;-54
2022/12/14 09:33:35;;;;;;;30.05;18.15;;;;;;;3.51;88.01;100050.13;5555737;32;32834;-54
2022/12/14 09:36:38;;;;;;;27.08;16.95;;;;;;;3.51;78.46;100052.75;5560639;32;33145;-53
2022/12/14 09:39:40;;;;;;;26.00;17.12;;;;;;;3.11;68.37;100047.56;5557181;32;33212;-54
2022/12/14 09:42:49;;;;;;;28.02;17.73;;;;;;;2.91;64.61;100050.66;5553472;32;32490;-54
2022/12/14 09:45:57;;;;;;;29.25;17.33;;;;;;;3.41;76.69;100036.69;5559089;32;33722;-54
2022/12/14 09:49:01;;;;;;;28.30;17.55;;;;;;;3.45;81.90;100024.56;5562651;32;34540;-54
2022/12/14 09:52:08;;;;;;;26.12;16.30;;;;;;;3.05;65.38;100019.41;5567686;32;33751;-53
2022/12/14 09:55:41;;;;;;;27.48;16.85;;;;;;;3.17;77.60;100009.53;5558752;32;34911;-54
2022/12/14 09:58:52;;;;;;;28.40;16.55;;;;;;;3.39;77.78;100014.13;5561981;32;34364;-54
2022/12/14 10:02:36;;;;;;;28.17;17.73;;;;;;;3.44;76.81;99991.16;5561219;32;34334;-54
2022/12/14 10:06:26;;;;;;;27.75;17.60;;;;;;;3.26;68.31;99988.75;5559614;32;33667;-53
2022/12/14 10:09:46;;;;;;;22.92;15.38;;;;;;;3.27;85.52;99993.00;5558000;32;33745;-54
2022/12/14 10:13:20;;;;;;;24.08;16.33;;;;;;;3.48;75.05;99997.59;5558116;32;32414;-54
2022/12/14 10:17:16;;;;;;;28.20;17.25;;;;;;;3.68;78.89;99994.44;5566473;32;32146;-53
2022/12/14 10:20:32;;;;;;;29.67;17.52;;;;;;;3.34;75.12;99996.28;5511650;31;31996;-54
2022/12/14 10:23:34;;;;;;;27.48;16.87;;;;;;;3.35;76.30;99987.31;5567471;32;33792;-54
2022/12/14 10:26:43;;;;;;;26.95;16.80;;;;;;;3.49;70.05;99991.22;5562873;32;33996;-54
2022/12/14 10:29:55;;;;;;;26.60;17.10;;;;;;;3.30;62.63;99984.56;5563380;32;34217;-55
2022/12/14 10:33:25;;;;;;;27.00;17.00;;;;;;;3.15;65.03;99971.91;5566467;32;33719;-53
2022/12/14 10:36:37;;;;;;;27.50;17.58;;;;;;;3.11;65.12;99959.38;5564863;32;33599;-54
2022/12/14 10:40:08;;;;;;;31.20;18.15;;;;;;;3.13;76.30;99952.81;5567929;32;34358;-54
2022/12/14 10:43:49;;;;;;;25.75;17.10;;;;;;;3.30;71.24;99932.41;5566676;32;33974;-54
2022/12/14 10:47:01;;;;;;;25.25;17.20;;;;;;;3.62;87.06;99934.44;5564280;32;33302;-54
2022/12/14 10:50:21;;;;;;;27.48;16.37;;;;;;;3.53;77.05;99935.91;5568212;32;33607;-54
2022/12/14 10:53:31;;;;;;;27.77;17.08;;;;;;;3.46;75.87;99922.81;5566364;32;33724;-54
2022/12/14 10:56:42;;;;;;;30.08;17.10;;;;;;;3.39;63.73;99922.19;5549323;32;34470;-54
2022/12/14 10:59:52;;;;;;;26.98;16.55;;;;;;;2.94;64.98;99923.09;5563034;32;33843;-54
2022/12/14 11:03:14;;;;;;;26.27;17.60;;;;;;;3.01;70.62;99920.28;5567031;32;33539;-55
2022/12/14 11:06:18;;;;;;;;;;;;;;;3.37;78.14;99918.97;5552909;32;33640;-54
2022/12/14 11:09:21;;;;;;;23.30;14.68;;;;;;;3.61;68.52;99922.25;5567317;32;34518;-54
2022/12/14 11:12:27;;;;;;;26.80;16.52;;;;;;;3.97;88.69;99914.69;5568910;32;33799;-54
2022/12/14 11:15:29;;;;;;;23.70;15.20;;;;;;;3.53;63.54;99909.41;5569176;32;33657;-55
2022/12/14 11:18:34;;;;;;;29.25;16.60;;;;;;;3.36;75.15;99917.37;5563564;31;32324;-54
2022/12/14 11:21:37;;;;;;;27.85;16.58;;;;;;;3.83;84.59;99918.78;5566867;32;33603;-55
2022/12/14 11:54:02;;;;;;;30.75;17.20;;;;;;;3.95;70.22;99855.81;5556361;32;35363;-54
2022/12/14 11:57:38;;;;;;;26.02;17.30;;;;;;;3.79;66.91;99849.53;5557892;32;33765;-54
2022/12/14 12:01:11;;;;;;;26.60;16.52;;;;;;;3.41;68.68;99851.22;5555069;32;33889;-54
2022/12/14 12:04:16;;;;;;;27.35;16.70;;;;;;;3.58;68.60;99843.22;5565991;32;34349;-54
2022/12/14 12:07:30;;;;;;;26.58;16.85;;;;;;;3.56;71.17;99845.28;5566235;32;34305;-54
2022/12/14 12:10:37;;;;;;;27.80;17.12;;;;;;;3.64;63.95;99842.22;5568472;32;34490;-54
2022/12/14 12:13:43;;;;;;;26.37;15.75;;;;;;;3.86;77.16;99828.94;5559767;32;33868;-54
2022/12/14 12:16:48;;;;;;;30.62;17.65;;;;;;;4.11;78.46;99835.56;5566589;32;33691;-54
2022/12/14 12:19:51;;;;;;;28.35;17.55;;;;;;;3.96;73.25;99821.09;5568653;32;33685;-54
2022/12/14 12:22:58;;;;;;;26.85;17.52;;;;;;;3.83;76.65;99818.03;5567659;32;34467;-54
2022/12/14 12:26:18;;;;;;;27.05;17.05;;;;;;;3.45;67.66;99806.47;5568512;32;33725;-54
2022/12/14 12:29:30;;;;;;;25.48;16.23;;;;;;;3.95;69.98;99810.75;5567601;32;34511;-54
2022/12/14 12:32:46;;;;;;;28.25;17.50;;;;;;;4.18;78.45;99802.47;5561778;32;34317;-54
2022/12/14 12:35:54;;;;;;;31.35;17.58;;;;;;;3.82;76.69;99801.31;5556382;32;34453;-54
2022/12/14 12:39:02;;;;;;;28.90;17.98;;;;;;;4.11;81.06;99791.28;5556762;32;34411;-53
2022/12/14 12:42:32;;;;;;;27.62;17.50;;;;;;;4.09;77.75;99784.59;5565578;32;33814;-54
2022/12/14 12:45:49;;;;;;;26.30;17.02;;;;;;;4.00;69.11;99779.75;5568204;31;33758;-54
2022/12/14 12:49:14;;;;;;;25.83;15.90;;;;;;;4.15;67.01;99784.41;5566513;32;34430;-54
2022/12/14 12:52:26;;;;;;;28.83;16.08;;;;;;;4.04;64.76;99776.59;5559502;32;33728;-53
2022/12/14 12:55:33;;;;;;;29.95;18.17;;;;;;;4.20;69.03;99773.81;5568426;32;33687;-54
2022/12/14 12:58:36;;;;;;;25.30;16.25;;;;;;;4.04;62.83;99771.28;5567722;32;33765;-54
2022/12/14 13:01:45;;;;;;;32.08;17.62;;;;;;;4.15;73.37;99762.38;5560831;32;34374;-53
2022/12/14 13:04:50;;;;;;;27.23;17.80;;;;;;;3.94;72.75;99767.50;5557729;32;33800;-54
2022/12/14 13:08:29;;;;;;;30.10;17.75;;;;;;;3.61;60.93;99768.50;5556273;32;33667;-54
2022/12/14 13:11:38;;;;;;;31.20;18.85;;;;;;;3.96;75.37;99764.59;5560704;32;33292;-54
2022/12/14 13:14:44;;;;;;;30.58;17.90;;;;;;;3.92;64.34;99760.84;5564131;32;33829;-54
2022/12/14 13:18:26;;;;;;;27.15;17.05;;;;;;;4.04;67.19;99753.53;5552632;32;34390;-53
2022/12/14 13:21:51;;;;;;;28.15;16.42;;;;;;;3.76;67.47;99747.44;5550766;32;33864;-54
2022/12/14 13:25:15;;;;;;;25.65;16.58;;;;;;;3.90;62.25;99753.12;5551050;32;33776;-54
2022/12/14 13:28:26;;;;;;;27.00;17.30;;;;;;;4.26;83.35;99747.34;5559087;32;33624;-54
2022/12/14 13:31:34;;;;;;;28.38;17.00;;;;;;;4.03;72.07;99738.66;5559503;32;34048;-54
2022/12/14 13:34:55;;;;;;;29.92;17.85;;;;;;;4.02;75.39;99736.28;5556795;32;33792;-54
2022/12/14 13:38:11;;;;;;;23.23;15.38;;;;;;;4.12;61.24;99733.72;5551652;32;34462;-54
2022/12/14 13:41:20;;;;;;;;;;;;;;;4.14;90.85;99729.75;5565365;32;34298;-54
2022/12/14 13:44:22;;;;;;;29.05;17.62;;;;;;;4.23;64.73;99720.25;5567442;32;33980;-54
2022/12/14 13:47:41;;;;;;;28.67;16.20;;;;;;;4.19;77.22;99713.06;5570276;32;34315;-54
2022/12/14 13:50:43;;;;;;;30.17;18.37;;;;;;;4.30;81.82;99717.38;5570224;32;33818;-54
2022/12/14 13:54:02;;;;;;;30.02;17.83;;;;;;;4.22;66.58;99716.00;5567342;32;34040;-54
2022/12/14 13:57:08;;;;;;;33.20;16.67;;;;;;;3.88;61.47;99709.38;5569961;32;33741;-54
2022/12/14 14:00:49;;;;;;;30.20;17.67;;;;;;;3.67;61.44;99709.16;5570187;32;33696;-54
2022/12/14 14:03:55;;;;;;;42.72;18.77;;;;;;;3.86;70.21;99704.31;5563243;32;34433;-54
2022/12/14 14:07:21;;;;;;;29.37;18.50;;;;;;;4.07;76.32;99693.88;5558160;32;34361;-53
2022/12/14 14:10:33;;;;;;;35.55;18.52;;;;;;;4.24;69.95;99694.53;5569018;32;33684;-54
2022/12/14 14:13:36;;;;;;;28.70;17.33;;;;;;;4.18;63.69;99695.56;5563763;32;33761;-54
2022/12/14 14:16:45;;;;;;;28.40;17.60;;;;;;;4.25;62.25;99693.47;5568621;32;33850;-54
2022/12/14 14:19:50;;;;;;;31.23;17.00;;;;;;;3.97;74.18;99695.41;5568610;32;33794;-54
2022/12/14 14:23:11;;;;;;;30.40;17.40;;;;;;;3.84;72.17;99698.47;5569805;32;34489;-55
2022/12/14 14:26:28;;;;;;;31.58;18.20;;;;;;;3.95;66.71;99696.72;5570147;32;33438;-54
2022/12/14 14:29:32;;;;;;;27.98;17.77;;;;;;;4.27;83.20;99685.25;5561298;32;33679;-54
2022/12/14 14:32:41;;;;;;;27.37;18.00;;;;;;;4.10;77.74;99686.19;5550826;32;33757;-54
2022/12/14 14:35:43;;;;;;;27.13;17.37;;;;;;;3.87;67.46;99673.28;5551278;32;33594;-54
2022/12/14 14:38:53;;;;;;;31.08;18.30;;;;;;;4.06;73.39;99665.75;5566539;32;33663;-54
2022/12/14 14:41:57;;;;;;;27.70;17.45;;;;;;;3.89;60.69;99664.03;5570056;32;34432;-53
2022/12/14 14:45:05;;;;;;;28.80;18.33;;;;;;;4.08;76.86;99666.31;5569774;32;33810;-54
2022/12/14 14:48:11;;;;;;;27.67;17.90;;;;;;;3.81;64.29;99669.81;5569746;32;33756;-53
2022/12/14 14:51:25;;;;;;;28.58;17.62;;;;;;;3.69;81.19;99672.63;5569892;32;33692;-54
2022/12/14 14:54:28;;;;;;;31.95;19.27;;;;;;;3.91;64.83;99677.06;5569665;32;33673;-54
2022/12/14 14:58:04;;;;;;;27.90;18.25;;;;;;;4.18;77.86;99664.53;5564009;32;33716;-54
2022/12/14 15:01:15;;;;;;;28.02;19.25;;;;;;;4.08;83.26;99671.63;5564487;32;33423;-54
2022/12/14 15:04:21;;;;;;;28.67;18.65;;;;;;;3.87;63.17;99668.78;5551608;32;34242;-53
2022/12/14 15:07:29;;;;;;;31.70;19.17;;;;;;;3.63;75.09;99678.91;5569225;32;33668;-54
2022/12/14 15:10:36;;;;;;;30.25;18.40;;;;;;;3.34;64.04;99680.22;5569337;32;33871;-54
2022/12/14 15:13:47;;;;;;;28.48;19.40;;;;;;;3.88;77.66;99674.91;5568883;32;34410;-54
2022/12/14 15:16:49;;;;;;;29.02;18.92;;;;;;;3.98;70.28;99667.81;5569308;32;33811;-54
2022/12/14 15:19:53;;;;;;;34.35;19.33;;;;;;;3.62;68.41;99669.38;5567758;32;33757;-53
2022/12/14 15:22:56;;;;;;;36.20;21.62;;;;;;;3.52;65.98;99678.03;5568697;32;33703;-53
2022/12/14 15:26:00;;;;;;;34.22;19.55;;;;;;;3.45;70.60;99685.38;5569643;32;33723;-54
2022/12/14 15:29:03;;;;;;;31.30;19.83;;;;;;;3.51;71.69;99686.25;5569564;32;33532;-54
2022/12/14 15:32:05;;;;;;;31.92;20.77;;;;;;;3.61;77.67;99674.91;5561146;32;34449;-54
2022/12/14 15:35:15;;;;;;;38.88;22.67;;;;;;;3.43;71.60;99676.88;5556713;32;34333;-54
2022/12/14 15:38:31;;;;;;;34.92;20.65;;;;;;;3.52;67.48;99672.75;5568551;32;33529;-54
2022/12/14 15:41:33;;;;;;;28.77;19.45;;;;;;;3.60;72.01;99660.88;5567905;32;33683;-54
2022/12/14 15:44:36;;;;;;;31.83;19.98;;;;;;;3.86;82.33;99656.59;5568295;32;33738;-54
2022/12/14 15:47:38;;;;;;;35.20;19.67;;;;;;;3.79;66.81;99663.97;5568645;32;33673;-54
2022/12/14 15:50:44;;;;;;;34.22;21.23;;;;;;;3.59;75.22;99669.09;5568927;32;33761;-54
2022/12/14 15:53:53;;;;;;;30.73;20.58;;;;;;;3.59;80.54;99672.53;5569212;32;33775;-53
2022/12/14 15:56:57;;;;;;;34.47;20.27;;;;;;;3.63;73.90;99670.19;5568659;32;33751;-54
2022/12/14 16:00:00;;;;;;;33.08;20.92;;;;;;;3.97;79.85;99665.41;5568177;32;34355;-54
2022/12/14 16:03:11;;;;;;;29.85;19.27;;;;;;;3.76;72.78;99662.59;5569227;32;33985;-54
2022/12/14 16:06:14;;;;;;;30.83;18.87;;;;;;;3.76;79.00;99667.91;5568400;32;33680;-54
2022/12/14 16:09:27;;;;;;;30.20;19.48;;;;;;;3.61;82.60;99661.66;5568754;32;33808;-54
2022/12/14 16:12:38;;;;;;;27.60;18.27;;;;;;;3.85;76.71;99655.00;5568997;32;33638;-54
2022/12/14 16:15:47;;;;;;;27.80;18.58;;;;;;;4.08;91.95;99658.34;5568357;32;33730;-54
2022/12/14 16:18:51;;;;;;;30.65;18.73;;;;;;;3.86;70.74;99648.63;5568581;32;33879;-54
2022/12/14 16:22:08;;;;;;;29.27;20.27;;;;;;;4.09;82.93;99634.22;5567257;32;34310;-54
2022/12/14 16:25:17;;;;;;;26.80;18.33;;;;;;;3.65;73.27;99618.53;5561955;32;33996;-54
2022/12/14 16:28:30;;;;;;;27.45;18.48;;;;;;;3.99;79.25;99611.06;5567836;32;34241;-54
2022/12/14 16:31:32;;;;;;;31.27;19.45;;;;;;;3.53;70.77;99607.28;5569079;32;34417;-54
2022/12/14 16:34:38;;;;;;;29.27;20.52;;;;;;;3.78;80.11;99605.91;5567097;32;33687;-54
2022/12/14 16:37:40;;;;;;;28.15;19.65;;;;;;;3.73;73.98;99599.47;5567790;32;33755;-54
2022/12/14 16:40:53;;;;;;;27.77;19.23;;;;;;;3.70;71.56;99588.59;5568793;32;33775;-54
2022/12/14 16:43:59;;;;;;;29.90;19.87;;;;;;;3.59;67.76;99593.03;5569037;32;34288;-54
